createdAt,value
2018-10-02T00:01:37.931Z,98994.50
2018-10-02T00:03:50.129Z,98993.78
2018-10-02T00:06:02.351Z,99001.25
2018-10-02T00:08:14.570Z,98996.83
2018-10-02T00:10:26.928Z,98996.95
2018-10-02T00:12:44.811Z,99003.84
2018-10-02T00:14:57.063Z,99000.95
2018-10-02T00:17:09.275Z,99003.16
2018-10-02T00:19:21.478Z,99003.13
2018-10-02T00:21:33.671Z,99001.37
2018-10-02T00:23:45.927Z,99007.97
2018-10-02T00:25:58.154Z,99007.58
2018-10-02T00:28:10.344Z,99003.16
2018-10-02T00:30:22.607Z,98998.77
2018-10-02T00:32:34.759Z,98999.23
2018-10-02T00:34:47.026Z,98996.64
2018-10-02T00:36:59.250Z,99002.92
2018-10-02T00:39:11.490Z,98999.42
2018-10-02T00:41:23.702Z,98999.61
2018-10-02T00:43:35.934Z,99000.38
2018-10-02T00:45:48.215Z,98996.05
2018-10-02T00:48:00.456Z,99005.75
2018-10-02T00:50:12.609Z,98996.64
2018-10-02T00:52:24.819Z,99003.27
2018-10-02T00:54:37.076Z,99002.52
2018-10-02T00:56:49.262Z,99002.68
2018-10-02T00:59:01.514Z,99003.81
2018-10-02T01:01:13.671Z,98999.93
2018-10-02T01:03:25.863Z,99010.09
2018-10-02T01:05:38.051Z,99007.63
2018-10-02T01:07:50.280Z,99009.23
2018-10-02T01:10:02.478Z,99010.06
2018-10-02T01:12:14.707Z,99010.91
2018-10-02T01:14:26.911Z,99007.02
2018-10-02T01:16:39.154Z,99008.73
2018-10-02T01:18:51.387Z,99012.62
2018-10-02T01:21:03.643Z,99009.16
2018-10-02T01:23:15.820Z,99008.39
2018-10-02T01:25:28.110Z,99005.00
2018-10-02T01:27:40.305Z,99006.30
2018-10-02T01:29:52.519Z,99004.43
2018-10-02T01:32:04.725Z,99011.44
2018-10-02T01:34:16.971Z,99004.28
2018-10-02T01:36:29.183Z,99004.02
2018-10-02T01:38:41.371Z,99003.64
2018-10-02T01:40:53.705Z,99002.45
2018-10-02T01:43:05.930Z,99009.73
2018-10-02T01:45:18.157Z,99002.45
2018-10-02T01:47:30.356Z,99006.23
2018-10-02T01:49:42.557Z,99005.42
2018-10-02T01:51:54.786Z,99005.31
2018-10-02T01:54:07.006Z,99002.34
2018-10-02T01:56:19.238Z,99004.55
2018-10-02T01:58:31.471Z,99007.52
2018-10-02T02:00:43.696Z,99016.97
2018-10-02T02:02:55.894Z,99014.91
2018-10-02T02:05:08.376Z,99022.52
2018-10-02T02:07:20.605Z,99026.83
2018-10-02T02:09:32.827Z,99030.44
2018-10-02T02:11:45.067Z,99026.78
2018-10-02T02:13:57.250Z,99029.41
2018-10-02T02:16:09.424Z,99024.95
2018-10-02T02:18:21.612Z,99028.53
2018-10-02T02:20:33.883Z,99037.32
2018-10-02T02:22:46.101Z,99040.09
2018-10-02T02:24:58.303Z,99041.22
2018-10-02T02:27:10.518Z,99037.98
2018-10-02T02:29:22.739Z,99043.99
2018-10-02T02:31:34.963Z,99042.73
2018-10-02T02:33:47.137Z,99043.97
2018-10-02T02:35:59.384Z,99048.17
2018-10-02T02:38:11.590Z,99049.12
2018-10-02T02:40:23.819Z,99052.72
2018-10-02T02:42:36.037Z,99047.58
2018-10-02T02:44:48.221Z,99049.95
2018-10-02T02:47:06.082Z,99045.45
2018-10-02T02:49:24.023Z,99053.31
2018-10-02T02:51:36.359Z,99053.09
2018-10-02T02:53:48.539Z,99059.20
2018-10-02T02:56:00.786Z,99063.25
2018-10-02T02:58:13.012Z,99055.31
2018-10-02T03:00:25.258Z,99059.00
2018-10-02T03:02:37.504Z,99065.89
2018-10-02T03:04:49.735Z,99062.56
2018-10-02T03:07:02.002Z,99059.66
2018-10-02T03:09:14.247Z,99062.79
2018-10-02T03:11:26.466Z,99062.79
2018-10-02T03:13:38.683Z,99062.38
2018-10-02T03:15:50.884Z,99061.24
2018-10-02T03:18:03.130Z,99066.05
2018-10-02T03:20:15.341Z,99070.48
2018-10-02T03:22:27.556Z,99074.61
2018-10-02T03:24:39.738Z,99073.93
2018-10-02T03:26:51.963Z,99077.05
2018-10-02T03:29:04.162Z,99080.09
2018-10-02T03:31:16.375Z,99079.67
2018-10-02T03:33:28.560Z,99078.89
2018-10-02T03:35:40.786Z,99078.98
2018-10-02T03:37:53.048Z,99081.12
2018-10-02T03:40:05.596Z,99079.44
2018-10-02T03:42:17.851Z,99085.05
2018-10-02T03:44:30.060Z,99077.85
2018-10-02T03:46:42.280Z,99080.55
2018-10-02T03:48:54.602Z,99076.45
2018-10-02T03:51:06.733Z,99074.34
2018-10-02T03:53:18.955Z,99076.14
2018-10-02T03:55:31.146Z,99080.44
2018-10-02T03:57:43.365Z,99075.88
2018-10-02T03:59:55.633Z,99083.35
2018-10-02T04:02:07.844Z,99079.17
2018-10-02T04:04:20.110Z,99090.12
2018-10-02T04:06:32.299Z,99083.91
2018-10-02T04:08:44.604Z,99084.22
2018-10-02T04:10:56.843Z,99095.22
2018-10-02T04:13:09.086Z,99095.00
2018-10-02T04:15:21.310Z,99098.25
2018-10-02T04:17:33.515Z,99090.36
2018-10-02T04:19:45.730Z,99094.90
2018-10-02T04:21:58.030Z,99098.16
2018-10-02T04:24:10.222Z,99092.10
2018-10-02T04:26:22.437Z,99090.68
2018-10-02T04:28:34.638Z,99094.22
2018-10-02T04:30:47.027Z,99097.66
2018-10-02T04:32:59.260Z,99102.42
2018-10-02T04:35:11.465Z,99099.06
2018-10-02T04:37:23.679Z,99099.29
2018-10-02T04:39:35.895Z,99091.02
2018-10-02T04:41:48.139Z,99090.46
2018-10-02T04:44:00.344Z,99090.25
2018-10-02T04:46:12.611Z,99087.03
2018-10-02T04:48:25.006Z,99092.78
2018-10-02T04:50:37.220Z,99084.42
2018-10-02T04:52:49.413Z,99088.41
2018-10-02T04:55:01.741Z,99094.84
2018-10-02T04:57:13.882Z,99090.09
2018-10-02T04:59:26.110Z,99091.43
2018-10-02T05:01:38.328Z,99094.45
2018-10-02T05:03:50.578Z,99102.69
2018-10-02T05:06:02.935Z,99104.89
2018-10-02T05:08:15.232Z,99105.38
2018-10-02T05:10:27.423Z,99107.06
2018-10-02T05:12:39.616Z,99103.09
2018-10-02T05:14:51.835Z,99093.54
2018-10-02T05:17:04.064Z,99092.01
2018-10-02T05:19:16.301Z,99096.13
2018-10-02T05:21:28.519Z,99100.69
2018-10-02T05:23:40.759Z,99094.69
2018-10-02T05:25:53.067Z,99095.41
2018-10-02T05:28:05.387Z,99099.98
2018-10-02T05:30:17.635Z,99103.64
2018-10-02T05:32:29.835Z,99106.54
2018-10-02T05:34:42.203Z,99107.84
2018-10-02T05:36:54.477Z,99109.19
2018-10-02T05:39:07.573Z,99104.88
2018-10-02T05:41:19.866Z,99106.67
2018-10-02T05:43:32.080Z,99110.85
2018-10-02T05:45:44.298Z,99112.91
2018-10-02T05:47:56.556Z,99103.81
2018-10-02T05:50:08.796Z,99111.81
2018-10-02T05:52:21.055Z,99108.78
2018-10-02T05:54:33.255Z,99103.48
2018-10-02T05:56:45.536Z,99096.50
2018-10-02T05:58:57.760Z,99103.19
2018-10-02T06:01:09.964Z,99103.16
2018-10-02T06:03:22.153Z,99106.08
2018-10-02T06:05:34.346Z,99101.66
2018-10-02T06:07:46.559Z,99102.36
2018-10-02T06:09:58.808Z,99100.38
2018-10-02T06:12:11.023Z,99104.84
2018-10-02T06:14:23.262Z,99106.25
2018-10-02T06:16:35.503Z,99113.42
2018-10-02T06:18:47.823Z,99118.98
2018-10-02T06:21:00.045Z,99114.88
2018-10-02T06:23:12.260Z,99114.17
2018-10-02T06:25:24.506Z,99123.95
2018-10-02T06:27:36.735Z,99141.97
2018-10-02T06:29:48.936Z,99134.00
2018-10-02T06:32:01.172Z,99131.28
2018-10-02T06:34:13.399Z,99139.36
2018-10-02T06:36:25.664Z,99139.81
2018-10-02T06:38:38.029Z,99136.32
2018-10-02T06:40:50.147Z,99130.60
2018-10-02T06:43:02.375Z,99130.53
2018-10-02T06:45:14.578Z,99128.11
2018-10-02T06:47:26.866Z,99127.73
2018-10-02T06:49:39.085Z,99138.62
2018-10-02T06:51:51.464Z,99133.90
2018-10-02T06:54:03.655Z,99134.35
2018-10-02T06:56:15.841Z,99129.56
2018-10-02T06:58:28.092Z,99129.11
2018-10-02T07:00:40.355Z,99120.05
2018-10-02T07:02:52.548Z,99116.22
2018-10-02T07:05:04.809Z,99116.39
2018-10-02T07:07:17.008Z,99112.09
2018-10-02T07:09:29.202Z,99112.00
2018-10-02T07:11:41.383Z,99112.19
2018-10-02T07:13:53.642Z,99113.14
2018-10-02T07:16:05.915Z,99105.36
2018-10-02T07:18:18.165Z,99112.42
2018-10-02T07:20:30.511Z,99121.75
2018-10-02T07:22:42.702Z,99125.66
2018-10-02T07:24:54.920Z,99130.27
2018-10-02T07:27:07.309Z,99136.04
2018-10-02T07:29:19.430Z,99137.88
2018-10-02T07:31:31.716Z,99130.47
2018-10-02T07:33:44.337Z,99135.62
2018-10-02T07:35:56.559Z,99143.28
2018-10-02T07:38:08.792Z,99126.42
2018-10-02T07:40:21.044Z,99129.14
2018-10-02T07:42:33.303Z,99138.77
2018-10-02T07:44:45.512Z,99135.06
2018-10-02T07:46:57.738Z,99142.98
2018-10-02T07:49:09.967Z,99130.36
2018-10-02T07:51:22.166Z,99126.69
2018-10-02T07:53:34.406Z,99126.09
2018-10-02T07:55:46.582Z,99126.55
2018-10-02T07:57:58.776Z,99122.71
2018-10-02T08:00:11.143Z,99131.31
2018-10-02T08:02:23.322Z,99137.66
2018-10-02T08:04:35.489Z,99133.43
2018-10-02T08:06:47.720Z,99126.92
2018-10-02T08:09:00.000Z,99127.39
2018-10-02T08:11:12.171Z,99131.40
2018-10-02T08:13:24.380Z,99129.50
2018-10-02T08:15:36.901Z,99120.69
2018-10-02T08:17:49.175Z,99126.04
2018-10-02T08:20:01.394Z,99135.67
2018-10-02T08:22:13.591Z,99132.90
2018-10-02T08:24:25.804Z,99132.67
2018-10-02T08:26:38.146Z,99126.78
2018-10-02T08:28:50.331Z,99124.14
2018-10-02T08:31:02.527Z,99114.73
2018-10-02T08:33:14.780Z,99124.64
2018-10-02T08:35:27.036Z,99116.34
2018-10-02T08:37:39.233Z,99116.61
2018-10-02T08:39:51.460Z,99116.98
2018-10-02T08:42:03.754Z,99120.89
2018-10-02T08:44:16.039Z,99112.84
2018-10-02T08:46:28.290Z,99116.04
2018-10-02T08:48:40.510Z,99110.80
2018-10-02T08:50:52.818Z,99104.61
2018-10-02T08:53:05.096Z,99107.37
2018-10-02T08:55:17.293Z,99101.03
2018-10-02T08:57:29.495Z,99100.52
2018-10-02T08:59:41.688Z,99103.33
2018-10-02T09:01:53.928Z,99113.57
2018-10-02T09:04:06.251Z,99123.02
2018-10-02T09:06:18.539Z,99129.30
2018-10-02T09:08:30.761Z,99129.45
2018-10-02T09:10:43.087Z,99119.50
2018-10-02T09:12:55.294Z,99122.63
2018-10-02T09:15:12.156Z,99120.47
2018-10-02T09:17:19.839Z,99122.44
2018-10-02T09:19:32.062Z,99127.96
2018-10-02T09:21:44.305Z,99128.56
2018-10-02T09:23:56.551Z,99129.27
2018-10-02T09:26:08.727Z,99126.14
2018-10-02T09:28:20.927Z,99122.26
2018-10-02T09:30:38.826Z,99127.92
2018-10-02T09:32:56.807Z,99123.33
2018-10-02T09:35:14.729Z,99114.68
2018-10-02T09:37:32.818Z,99117.91
2018-10-02T09:39:50.748Z,99111.48
2018-10-02T09:42:08.677Z,99115.52
2018-10-02T09:44:20.879Z,99117.37
2018-10-02T09:46:33.316Z,99113.47
2018-10-02T09:48:45.547Z,99112.55
2018-10-02T09:50:57.796Z,99107.17
2018-10-02T09:53:10.020Z,99106.81
2018-10-02T09:55:22.202Z,99109.50
2018-10-02T09:57:34.538Z,99109.80
2018-10-02T09:59:46.824Z,99108.03
2018-10-02T10:02:04.739Z,99097.52
2018-10-02T10:04:17.560Z,99098.21
2018-10-02T10:06:29.780Z,99094.31
2018-10-02T10:08:41.989Z,99093.22
2018-10-02T10:10:54.279Z,99095.48
2018-10-02T10:13:06.499Z,99096.16
2018-10-02T10:15:18.754Z,99089.18
2018-10-02T10:17:31.041Z,99088.58
2018-10-02T10:19:43.232Z,99093.41
2018-10-02T10:21:55.459Z,99094.78
2018-10-02T10:24:07.690Z,99094.78
2018-10-02T10:26:19.966Z,99089.45
2018-10-02T10:28:32.245Z,99089.77
2018-10-02T10:30:44.503Z,99087.39
2018-10-02T10:32:56.733Z,99086.28
2018-10-02T10:35:08.972Z,99086.55
2018-10-02T10:37:21.217Z,99087.22
2018-10-02T10:39:33.424Z,99090.92
2018-10-02T10:41:45.666Z,99087.55
2018-10-02T10:43:57.872Z,99083.06
2018-10-02T10:46:10.126Z,99077.23
2018-10-02T10:48:22.503Z,99080.09
2018-10-02T10:50:34.726Z,99073.37
2018-10-02T10:52:46.939Z,99086.34
2018-10-02T10:55:10.519Z,99090.03
2018-10-02T10:57:22.830Z,99088.17
2018-10-02T10:59:35.021Z,99078.73
2018-10-02T11:01:47.293Z,99073.14
2018-10-02T11:03:59.543Z,99075.70
2018-10-02T11:06:11.778Z,99066.58
2018-10-02T11:08:23.986Z,99070.70
2018-10-02T11:10:36.225Z,99070.33
2018-10-02T11:12:48.577Z,99079.82
2018-10-02T11:15:00.863Z,99076.80
2018-10-02T11:17:13.148Z,99080.14
2018-10-02T11:19:25.462Z,99079.41
2018-10-02T11:21:37.679Z,99082.53
2018-10-02T11:23:49.931Z,99080.52
2018-10-02T11:26:02.207Z,99070.49
2018-10-02T11:28:14.503Z,99065.86
2018-10-02T11:30:26.774Z,99050.34
2018-10-02T11:32:39.011Z,99046.11
2018-10-02T11:34:51.262Z,99044.18
2018-10-02T11:37:03.548Z,99033.41
2018-10-02T11:39:15.826Z,99028.19
2018-10-02T11:41:28.008Z,99023.55
2018-10-02T11:43:40.273Z,99027.09
2018-10-02T11:45:52.522Z,99023.80
2018-10-02T11:48:04.775Z,99021.86
2018-10-02T11:50:16.988Z,99023.95
2018-10-02T11:52:29.202Z,99027.14
2018-10-02T11:54:41.463Z,99024.94
2018-10-02T11:56:53.727Z,99021.86
2018-10-02T11:59:05.942Z,99013.04
2018-10-02T12:01:18.253Z,99008.46
2018-10-02T12:03:30.491Z,99009.91
2018-10-02T12:05:42.617Z,99009.87
2018-10-02T12:07:54.856Z,99011.27
2018-10-02T12:10:07.171Z,99007.99
2018-10-02T12:12:19.395Z,98999.62
2018-10-02T12:14:31.758Z,99003.54
2018-10-02T12:16:43.889Z,99001.87
2018-10-02T12:18:56.131Z,98997.30
2018-10-02T12:21:08.359Z,99003.75
2018-10-02T12:23:21.538Z,99003.89
2018-10-02T12:25:33.774Z,99002.81
2018-10-02T12:27:46.049Z,99000.07
2018-10-02T12:29:58.251Z,98995.22
2018-10-02T12:32:10.579Z,99006.59
2018-10-02T12:34:22.815Z,99007.42
2018-10-02T12:36:35.080Z,99005.36
2018-10-02T12:38:47.322Z,99001.78
2018-10-02T12:40:59.610Z,99000.25
2018-10-02T12:43:11.823Z,99001.88
2018-10-02T12:45:24.059Z,98996.00
2018-10-02T12:47:36.303Z,99000.45
2018-10-02T12:49:48.503Z,98994.23
2018-10-02T12:52:00.731Z,98990.79
2018-10-02T12:54:12.935Z,98995.20
2018-10-02T12:56:25.211Z,98990.66
2018-10-02T12:58:38.332Z,98987.21
2018-10-02T13:00:50.535Z,98987.48
2018-10-02T13:03:02.825Z,98982.23
2018-10-02T13:05:15.079Z,98973.95
2018-10-02T13:07:27.350Z,98979.23
2018-10-02T13:09:39.601Z,98975.25
2018-10-02T13:11:51.851Z,98970.74
2018-10-02T13:14:04.092Z,98968.44
2018-10-02T13:16:16.327Z,98972.48
2018-10-02T13:18:28.676Z,98970.50
2018-10-02T13:20:40.850Z,98966.06
2018-10-02T13:22:53.075Z,98956.21
2018-10-02T13:25:05.334Z,98945.81
2018-10-02T13:27:17.584Z,98948.96
2018-10-02T13:29:29.806Z,98940.23
2018-10-02T13:31:42.040Z,98940.77
2018-10-02T13:33:54.293Z,98937.23
2018-10-02T13:36:06.975Z,98932.48
2018-10-02T13:38:19.222Z,98928.84
2018-10-02T13:40:31.477Z,98930.69
2018-10-02T13:42:43.785Z,98934.97
2018-10-02T13:44:56.076Z,98938.67
2018-10-02T13:47:08.300Z,98940.60
2018-10-02T13:49:20.527Z,98936.97
2018-10-02T13:51:32.728Z,98942.11
2018-10-02T13:53:44.972Z,98947.59
2018-10-02T13:55:57.239Z,98948.52
2018-10-02T13:58:09.991Z,98943.31
2018-10-02T14:00:22.240Z,98942.14
2018-10-02T14:02:34.767Z,98945.75
2018-10-02T14:04:47.115Z,98943.68
2018-10-02T14:06:59.381Z,98949.36
2018-10-02T14:09:11.630Z,98948.42
2018-10-02T14:11:23.872Z,98945.34
2018-10-02T14:13:36.164Z,98950.76
2018-10-02T14:15:48.356Z,98953.20
2018-10-02T14:18:00.595Z,98945.08
2018-10-02T14:20:12.896Z,98949.13
2018-10-02T14:22:25.165Z,98944.45
2018-10-02T14:24:37.415Z,98944.66
2018-10-02T14:26:49.619Z,98946.22
2018-10-02T14:29:01.903Z,98944.28
2018-10-02T14:31:14.098Z,98939.80
2018-10-02T14:33:26.546Z,98945.95
2018-10-02T14:35:38.894Z,98935.06
2018-10-02T14:37:51.105Z,98933.13
2018-10-02T14:40:03.450Z,98932.55
2018-10-02T14:42:15.720Z,98942.17
2018-10-02T14:44:27.998Z,98941.56
2018-10-02T14:46:40.206Z,98940.45
2018-10-02T14:48:52.504Z,98940.87
2018-10-02T14:51:04.816Z,98943.59
2018-10-02T14:53:17.061Z,98940.57
2018-10-02T14:55:29.285Z,98942.87
2018-10-02T14:57:41.539Z,98941.66
2018-10-02T14:59:53.784Z,98940.68
2018-10-02T15:02:06.092Z,98942.14
2018-10-02T15:04:18.407Z,98942.48
2018-10-02T15:06:30.662Z,98937.97
2018-10-02T15:08:42.925Z,98931.77
2018-10-02T15:10:55.214Z,98933.91
2018-10-02T15:13:07.480Z,98932.77
2018-10-02T15:15:19.686Z,98929.64
2018-10-02T15:17:31.940Z,98937.17
2018-10-02T15:19:44.155Z,98929.89
2018-10-02T15:21:56.430Z,98941.07
2018-10-02T15:24:08.702Z,98931.19
2018-10-02T15:26:21.196Z,98930.95
2018-10-02T15:28:33.418Z,98930.95
2018-10-02T15:30:45.653Z,98932.64
2018-10-02T15:32:57.905Z,98929.14
2018-10-02T15:35:10.185Z,98935.25
2018-10-02T15:37:22.461Z,98930.57
2018-10-02T15:39:34.678Z,98928.50
2018-10-02T15:41:46.916Z,98933.48
2018-10-02T15:43:59.149Z,98936.67
2018-10-02T15:46:11.393Z,98930.11
2018-10-02T15:48:23.639Z,98932.70
2018-10-02T15:50:35.853Z,98931.81
2018-10-02T15:52:48.100Z,98930.29
2018-10-02T15:55:00.355Z,98929.27
2018-10-02T15:57:12.598Z,98932.48
2018-10-02T15:59:24.851Z,98937.23
2018-10-02T16:01:37.136Z,98941.06
2018-10-02T16:03:49.367Z,98936.61
2018-10-02T16:06:01.689Z,98933.48
2018-10-02T16:08:13.963Z,98929.95
2018-10-02T16:10:26.191Z,98930.27
2018-10-02T16:12:38.416Z,98925.83
2018-10-02T16:14:50.696Z,98929.27
2018-10-02T16:17:02.951Z,98936.30
2018-10-02T16:19:15.187Z,98939.67
2018-10-02T16:21:27.483Z,98942.19
2018-10-02T16:23:40.559Z,98940.88
2018-10-02T16:25:52.783Z,98933.64
2018-10-02T16:28:05.072Z,98936.48
2018-10-02T16:30:17.311Z,98930.88
2018-10-02T16:32:29.567Z,98936.02
2018-10-02T16:34:49.287Z,98939.15
2018-10-02T16:36:54.128Z,98934.56
2018-10-02T16:39:07.802Z,98941.13
2018-10-02T16:41:20.009Z,98944.64
2018-10-02T16:43:32.291Z,98941.86
2018-10-02T16:45:44.535Z,98952.50
2018-10-02T16:47:56.855Z,98953.33
2018-10-02T16:50:09.139Z,98964.98
2018-10-02T16:52:21.387Z,98970.55
2018-10-02T16:54:33.728Z,98967.73
2018-10-02T16:56:45.878Z,98967.67
2018-10-02T16:58:58.105Z,98970.28
2018-10-02T17:01:10.304Z,98971.48
2018-10-02T17:03:22.556Z,98970.55
2018-10-02T17:05:34.784Z,98972.41
2018-10-02T17:07:46.998Z,98972.01
2018-10-02T17:09:59.242Z,98974.48
2018-10-02T17:12:11.516Z,98980.63
2018-10-02T17:14:23.865Z,98974.02
2018-10-02T17:16:36.395Z,98973.50
2018-10-02T17:18:48.610Z,98975.33
2018-10-02T17:21:00.839Z,98983.13
2018-10-02T17:23:13.050Z,98982.14
2018-10-02T17:25:25.340Z,98990.62
2018-10-02T17:27:37.579Z,98989.79
2018-10-02T17:29:49.844Z,98983.23
2018-10-02T17:32:02.071Z,98981.46
2018-10-02T17:34:14.353Z,98985.73
2018-10-02T17:36:26.615Z,98978.70
2018-10-02T17:38:38.946Z,98988.55
2018-10-02T17:40:51.211Z,98992.30
2018-10-02T17:43:03.497Z,98992.14
2018-10-02T17:45:15.808Z,98989.55
2018-10-02T17:47:28.310Z,99004.72
2018-10-02T17:49:40.506Z,99005.93
2018-10-02T17:51:52.877Z,99004.16
2018-10-02T17:54:05.164Z,99000.63
2018-10-02T17:56:17.385Z,99005.09
2018-10-02T17:58:29.663Z,98997.81
2018-10-02T18:00:41.941Z,99001.34
2018-10-02T18:02:54.268Z,98999.11
2018-10-02T18:05:06.527Z,98994.22
2018-10-02T18:07:18.787Z,99001.19
2018-10-02T18:09:31.120Z,98988.55
2018-10-02T18:11:43.331Z,98989.33
2018-10-02T18:13:55.723Z,98995.06
2018-10-02T18:16:08.020Z,98996.52
2018-10-02T18:18:20.330Z,99009.92
2018-10-02T18:20:32.691Z,99002.34
2018-10-02T18:22:44.959Z,99007.14
2018-10-02T18:24:57.163Z,99003.02
2018-10-02T18:27:09.381Z,99012.96
2018-10-02T18:29:21.592Z,99019.93
2018-10-02T18:31:33.839Z,99024.39
2018-10-02T18:33:46.082Z,99021.38
2018-10-02T18:35:58.532Z,99017.58
2018-10-02T18:38:10.795Z,99020.95
2018-10-02T18:40:23.049Z,99025.37
2018-10-02T18:42:35.309Z,99030.27
2018-10-02T18:44:47.720Z,99029.98
2018-10-02T18:46:59.999Z,99028.91
2018-10-02T18:49:12.287Z,99039.84
2018-10-02T18:51:24.505Z,99040.22
2018-10-02T18:53:36.848Z,99048.33
2018-10-02T18:55:49.174Z,99050.78
2018-10-02T18:58:01.439Z,99049.02
2018-10-02T19:00:13.739Z,99042.45
2018-10-02T19:02:25.996Z,99044.19
2018-10-02T19:04:38.260Z,99055.98
2018-10-02T19:06:50.582Z,99056.36
2018-10-02T19:09:08.670Z,99057.66
2018-10-02T19:11:26.546Z,99066.62
2018-10-02T19:13:39.040Z,99070.52
2018-10-02T19:16:30.586Z,99072.75
2018-10-02T19:18:42.996Z,99070.67
2018-10-02T19:20:55.314Z,99080.80
2018-10-02T19:23:07.730Z,99073.36
2018-10-02T19:25:25.658Z,99077.64
2018-10-02T19:27:38.023Z,99081.32
2018-10-02T19:29:56.094Z,99090.74
2018-10-02T19:32:11.454Z,99094.09
2018-10-02T19:34:23.893Z,99094.93
2018-10-02T19:36:36.464Z,99094.23
2018-10-02T19:38:51.364Z,99085.13
2018-10-02T19:41:03.744Z,99092.10
2018-10-02T19:43:16.218Z,99091.27
2018-10-02T19:45:34.042Z,99095.78
2018-10-02T19:47:46.348Z,99096.24
2018-10-02T19:49:58.846Z,99097.17
2018-10-02T19:52:12.508Z,99093.27
2018-10-02T19:54:25.320Z,99087.14
2018-10-02T19:56:37.596Z,99093.64
2018-10-02T19:58:50.273Z,99081.94
2018-10-02T20:01:02.595Z,99092.80
2018-10-02T20:03:14.842Z,99094.25
2018-10-02T20:05:27.143Z,99087.84
2018-10-02T20:07:39.403Z,99101.13
2018-10-02T20:09:51.668Z,99097.63
2018-10-02T20:12:03.932Z,99094.11
2018-10-02T20:14:16.224Z,99095.63
2018-10-02T20:16:28.490Z,99091.73
2018-10-02T20:18:40.746Z,99091.64
2018-10-02T20:20:52.994Z,99094.23
2018-10-02T20:23:05.267Z,99098.55
2018-10-02T20:25:17.529Z,99103.66
2018-10-02T20:27:29.783Z,99101.20
2018-10-02T20:29:42.089Z,99097.02
2018-10-02T20:31:54.346Z,99099.07
2018-10-02T20:34:06.615Z,99089.59
2018-10-02T20:36:18.880Z,99093.86
2018-10-02T20:38:31.130Z,99096.32
2018-10-02T20:40:43.386Z,99087.59
2018-10-02T20:42:55.724Z,99089.03
2018-10-02T20:45:07.944Z,99088.29
2018-10-02T20:47:20.270Z,99092.02
2018-10-02T20:49:32.534Z,99087.23
2018-10-02T20:51:44.756Z,99085.52
2018-10-02T20:53:57.049Z,99083.38
2018-10-02T20:56:09.298Z,99076.41
2018-10-02T20:58:21.856Z,99078.55
2018-10-02T21:00:34.218Z,99082.17
2018-10-02T21:02:46.487Z,99083.06
2018-10-02T21:04:58.730Z,99078.38
2018-10-02T21:07:11.037Z,99067.92
2018-10-02T21:09:23.272Z,99066.73
2018-10-02T21:11:35.490Z,99066.22
2018-10-02T21:13:47.757Z,99066.62
2018-10-02T21:16:00.068Z,99059.34
2018-10-02T21:18:12.383Z,99055.73
2018-10-02T21:20:24.616Z,99057.50
2018-10-02T21:22:36.791Z,99052.76
2018-10-02T21:24:49.155Z,99056.25
2018-10-02T21:27:01.386Z,99057.03
2018-10-02T21:29:13.662Z,99050.63
2018-10-02T21:31:25.917Z,99055.73
2018-10-02T21:33:38.106Z,99061.64
2018-10-02T21:35:50.364Z,99053.84
2018-10-02T21:38:02.819Z,99054.67
2018-10-02T21:40:15.193Z,99055.05
2018-10-02T21:42:27.359Z,99065.45
2018-10-02T21:44:39.723Z,99068.88
2018-10-02T21:46:52.022Z,99073.16
2018-10-02T21:49:04.225Z,99069.96
2018-10-02T21:51:16.477Z,99071.11
2018-10-02T21:53:28.674Z,99058.11
2018-10-02T21:55:40.897Z,99057.73
2018-10-02T21:57:53.166Z,99068.66
2018-10-02T22:00:06.807Z,99067.36
2018-10-02T22:02:19.032Z,99061.32
2018-10-02T22:04:31.236Z,99069.96
2018-10-02T22:06:43.499Z,99066.44
2018-10-02T22:08:55.763Z,99078.97
2018-10-02T22:11:07.995Z,99074.09
2018-10-02T22:13:20.246Z,99075.62
2018-10-02T22:15:32.461Z,99081.44
2018-10-02T22:17:44.811Z,99072.09
2018-10-02T22:19:57.051Z,99068.66
2018-10-02T22:22:09.320Z,99067.21
2018-10-02T22:24:21.638Z,99063.31
2018-10-02T22:26:33.856Z,99062.25
2018-10-02T22:28:46.318Z,99057.11
2018-10-02T22:30:58.525Z,99061.00
2018-10-02T22:33:10.838Z,99049.67
2018-10-02T22:35:22.998Z,99056.17
2018-10-02T22:37:35.291Z,99049.39
2018-10-02T22:39:47.545Z,99041.19
2018-10-02T22:41:59.792Z,99052.28
2018-10-02T22:44:12.108Z,99049.77
2018-10-02T22:46:24.396Z,99048.38
2018-10-02T22:48:36.878Z,99057.02
2018-10-02T22:50:49.138Z,99066.82
2018-10-02T22:53:01.414Z,99061.82
2018-10-02T22:55:18.356Z,99066.97
2018-10-02T22:57:30.600Z,99060.84
2018-10-02T22:59:42.824Z,99062.75
2018-10-02T23:01:55.057Z,99060.52
2018-10-02T23:04:07.268Z,99061.59
2018-10-02T23:06:19.480Z,99069.77
2018-10-02T23:08:31.668Z,99071.98
2018-10-02T23:10:43.937Z,99066.61
2018-10-02T23:12:56.108Z,99068.52
2018-10-02T23:15:08.310Z,99064.70
2018-10-02T23:17:20.495Z,99062.10
2018-10-02T23:19:32.714Z,99066.23
2018-10-02T23:21:44.888Z,99065.77
2018-10-02T23:23:57.098Z,99058.35
2018-10-02T23:26:09.346Z,99056.45
2018-10-02T23:28:21.510Z,99055.84
2018-10-02T23:30:33.755Z,99051.05
2018-10-02T23:32:46.089Z,99047.98
2018-10-02T23:34:58.260Z,99045.44
2018-10-02T23:37:10.467Z,99050.59
2018-10-02T23:39:22.659Z,99043.25
2018-10-02T23:41:34.895Z,99046.08
2018-10-02T23:43:47.163Z,99048.22
2018-10-02T23:45:59.407Z,99047.38
2018-10-02T23:48:11.607Z,99051.88
2018-10-02T23:50:23.819Z,99045.94
2018-10-02T23:52:36.019Z,99048.30
2018-10-02T23:54:48.218Z,99044.72
2018-10-02T23:57:00.481Z,99036.83
2018-10-02T23:59:12.694Z,99037.89
